Time;durP1;ratioP1;P1;durP2;ratioP2;P2;SDS_P1;SDS_P2;PMS_P1;PMS_P2;Temp;Humidity;BMP_temperature;BMP_pressure;BME280_temperature;BME280_humidity;BME280_pressure;Samples;Min_cycle;Max_cycle;Signal;HPM_P1;HPM_P2
2022/04/17 00:02:21;;;;;;;;;;;;;;;11.75;74.06;100396.00;5066368;28;19929;-37
2022/04/17 00:04:46;;;;;;;;;;;;;;;11.86;74.31;100391.50;5065615;28;19926;-37
2022/04/17 00:07:12;;;;;;;;;;;;;;;11.77;74.96;100392.53;5065311;28;19920;-37
2022/04/17 00:09:37;;;;;;;;;;;;;;;11.40;77.90;100394.75;5067331;28;19938;-37
2022/04/17 00:12:02;;;;;;;;;;;;;;;11.62;79.36;100393.56;5066336;28;20011;-37
2022/04/17 00:14:27;;;;;;;;;;;;;;;11.87;75.99;100390.66;5067332;28;19951;-37
2022/04/17 00:16:54;;;;;;;;;;;;;;;11.83;74.00;100394.16;5066409;28;19971;-37
2022/04/17 00:19:20;;;;;;;;;;;;;;;11.82;74.50;100400.19;5066351;28;19926;-37
2022/04/17 00:21:45;;;;;;;;;;;;;;;11.83;75.80;100404.47;5065518;28;19924;-37
2022/04/17 00:24:10;;;;;;;;;;;;;;;11.61;76.65;100402.22;5068295;28;19932;-37
2022/04/17 00:26:36;;;;;;;;;;;;;;;11.44;77.88;100404.16;5065791;28;19932;-37
2022/04/17 00:29:01;;;;;;;;;;;;;;;11.24;79.27;100391.50;5065368;28;19965;-37
2022/04/17 00:31:26;;;;;;;;;;;;;;;10.56;85.73;100396.53;5062172;28;19960;-37
2022/04/17 00:33:51;;;;;;;;;;;;;;;10.33;87.24;100395.06;5066115;28;19928;-37
2022/04/17 00:36:17;;;;;;;;;;;;;;;10.40;87.65;100396.69;5066140;28;19920;-37
2022/04/17 00:38:42;;;;;;;;;;;;;;;10.06;88.71;100396.09;5064104;28;20008;-37
2022/04/17 00:41:07;;;;;;;;;;;;;;;10.60;86.57;100378.47;5061680;28;19963;-37
2022/04/17 00:43:33;;;;;;;;;;;;;;;9.97;86.59;100391.00;5065955;28;19964;-37
2022/04/17 00:45:58;;;;;;;;;;;;;;;10.31;86.74;100391.63;5063409;28;19925;-37
2022/04/17 00:48:23;;;;;;;;;;;;;;;10.03;87.80;100380.66;5063396;28;19927;-37
2022/04/17 00:50:49;;;;;;;;;;;;;;;9.56;91.53;100382.69;5066402;28;19959;-37
2022/04/17 00:53:15;;;;;;;;;;;;;;;9.32;92.89;100380.22;5063160;28;19923;-37
2022/04/17 00:55:40;;;;;;;;;;;;;;;9.30;94.47;100377.66;5066657;28;20305;-37
2022/04/17 00:58:06;;;;;;;;;;;;;;;8.98;96.41;100370.09;5064313;28;20032;-37
2022/04/17 01:00:33;;;;;;;;;;;;;;;9.32;95.77;100375.94;5063646;28;19962;-37
2022/04/17 01:02:58;;;;;;;;;;;;;;;9.17;94.60;100366.59;5066204;28;19928;-37
2022/04/17 01:05:23;;;;;;;;;;;;;;;9.21;94.60;100358.03;5066952;28;19919;-37
2022/04/17 01:07:49;;;;;;;;;;;;;;;9.09;97.61;100346.94;5064988;28;19993;-37
2022/04/17 01:10:15;;;;;;;;;;;;;;;8.70;96.88;100348.78;5061673;28;19921;-37
2022/04/17 01:12:40;;;;;;;;;;;;;;;9.18;98.09;100342.59;5066170;28;19931;-37
2022/04/17 01:15:05;;;;;;;;;;;;;;;8.87;98.56;100338.44;5062265;28;19920;-37
2022/04/17 01:17:30;;;;;;;;;;;;;;;9.35;97.51;100339.06;5063073;28;19916;-37
2022/04/17 01:19:56;;;;;;;;;;;;;;;9.15;95.78;100331.50;5062103;28;19955;-37
2022/04/17 01:22:21;;;;;;;;;;;;;;;9.39;96.34;100343.34;5062315;28;19928;-37
2022/04/17 01:27:30;;;;;;;;;;;;;;;9.47;96.97;100339.03;5063155;28;19970;-37
2022/04/17 01:29:56;;;;;;;;;;;;;;;8.76;95.59;100347.06;5062202;28;20985;-37
2022/04/17 01:32:21;;;;;;;;;;;;;;;9.09;94.95;100336.66;5061350;28;19928;-37
2022/04/17 01:34:46;;;;;;;;;;;;;;;9.24;96.21;100330.56;5065324;28;19927;-37
2022/04/17 01:37:13;;;;;;;;;;;;;;;9.24;95.98;100328.00;5062649;28;20733;-37
2022/04/17 01:39:39;;;;;;;;;;;;;;;9.08;94.98;100320.38;5065311;28;20689;-37
2022/04/17 01:42:04;;;;;;;;;;;;;;;8.93;96.76;100323.84;5062040;28;20011;-37
2022/04/17 01:44:29;;;;;;;;;;;;;;;9.60;95.80;100314.94;5062020;28;19968;-37
2022/04/17 01:46:55;;;;;;;;;;;;;;;9.19;94.67;100313.47;5065459;28;19930;-37
2022/04/17 01:49:20;;;;;;;;;;;;;;;9.12;96.15;100316.94;5063856;28;19931;-37
2022/04/17 01:51:47;;;;;;;;;;;;;;;9.66;93.65;100311.47;5067280;28;21031;-37
2022/04/17 01:54:13;;;;;;;;;;;;;;;9.83;92.61;100316.50;5064283;28;19948;-37
2022/04/17 01:56:39;;;;;;;;;;;;;;;10.06;90.61;100311.16;5061423;28;20717;-37
2022/04/17 01:59:05;;;;;;;;;;;;;;;9.63;90.79;100314.91;5065235;28;19934;-37
2022/04/17 02:01:31;;;;;;;;;;;;;;;9.11;95.37;100320.34;5062281;28;20778;-37
2022/04/17 02:03:56;;;;;;;;;;;;;;;9.29;94.75;100309.13;5062979;28;19929;-37
2022/04/17 02:06:21;;;;;;;;;;;;;;;9.18;96.07;100316.03;5062747;28;19920;-37
2022/04/17 02:08:46;;;;;;;;;;;;;;;8.56;99.06;100310.31;5060140;28;19921;-37
2022/04/17 02:11:12;;;;;;;;;;;;;;;8.84;100.00;100303.34;5060165;28;20602;-37
2022/04/17 02:13:38;;;;;;;;;;;;;;;8.41;100.00;100316.31;5065697;28;19996;-37
2022/04/17 02:16:04;;;;;;;;;;;;;;;8.42;100.00;100318.03;5064628;28;19954;-37
2022/04/17 02:18:29;;;;;;;;;;;;;;;9.07;99.13;100313.50;5063595;28;19968;-37
2022/04/17 02:20:54;;;;;;;;;;;;;;;8.38;100.00;100309.44;5062632;28;19916;-37
2022/04/17 02:23:20;;;;;;;;;;;;;;;8.56;100.00;100307.72;5063004;28;19927;-37
2022/04/17 02:25:45;;;;;;;;;;;;;;;8.70;100.00;100307.69;5060636;28;19920;-37
2022/04/17 02:28:10;;;;;;;;;;;;;;;8.89;99.20;100305.91;5062147;28;19950;-37
2022/04/17 02:30:36;;;;;;;;;;;;;;;8.53;100.00;100320.56;5064077;28;20654;-37
2022/04/17 02:33:01;;;;;;;;;;;;;;;8.70;99.99;100302.56;5060711;28;19919;-37
2022/04/17 02:35:27;;;;;;;;;;;;;;;8.36;100.00;100303.44;5061083;28;19920;-37
2022/04/17 02:37:52;;;;;;;;;;;;;;;8.55;100.00;100299.19;5061395;28;20500;-37
2022/04/17 02:40:17;;;;;;;;;;;;;;;8.61;99.99;100295.72;5064661;28;19924;-37
2022/04/17 02:42:45;;;;;;;;;;;;;;;8.10;100.00;100300.09;5062311;28;20019;-37
2022/04/17 02:45:11;;;;;;;;;;;;;;;8.75;100.00;100286.25;5062258;28;19920;-37
2022/04/17 02:47:51;;;;;;;;;;;;;;;8.55;100.00;100286.34;5062973;28;19921;-37
2022/04/17 02:50:17;;;;;;;;;;;;;;;8.64;100.00;100292.28;5063514;28;19924;-37
2022/04/17 02:52:42;;;;;;;;;;;;;;;8.74;100.00;100288.84;5061985;28;19982;-37
2022/04/17 02:55:08;;;;;;;;;;;;;;;8.62;100.00;100289.75;5060691;28;20694;-37
2022/04/17 02:57:33;;;;;;;;;;;;;;;8.75;98.88;100281.09;5061769;28;20348;-37
2022/04/17 02:59:59;;;;;;;;;;;;;;;8.81;99.52;100289.69;5065318;28;19935;-37
2022/04/17 03:07:52;;;;;;;;;;;;;;;9.97;92.98;100273.47;5061260;28;19927;-37
2022/04/17 03:10:17;;;;;;;;;;;;;;;10.14;90.42;100275.03;5064576;28;19920;-37
2022/04/17 03:12:43;;;;;;;;;;;;;;;9.27;90.22;100268.88;5068056;28;20699;-37
2022/04/17 03:15:09;;;;;;;;;;;;;;;9.85;93.31;100258.13;5067815;28;19929;-37
2022/04/17 03:17:34;;;;;;;;;;;;;;;9.64;93.78;100266.88;5064100;28;19920;-37
2022/04/17 03:19:59;;;;;;;;;;;;;;;9.62;94.00;100264.34;5068811;28;19916;-37
2022/04/17 03:22:25;;;;;;;;;;;;;;;10.07;90.61;100258.78;5064777;28;19928;-37
2022/04/17 03:24:50;;;;;;;;;;;;;;;10.13;89.88;100257.91;5068305;28;20007;-37
2022/04/17 03:27:16;;;;;;;;;;;;;;;9.93;91.41;100261.50;5067502;28;19926;-37
2022/04/17 03:29:41;;;;;;;;;;;;;;;10.20;89.21;100260.38;5064866;28;19999;-37
2022/04/17 03:32:06;;;;;;;;;;;;;;;9.67;91.62;100269.47;5066192;28;20015;-37
2022/04/17 03:34:32;;;;;;;;;;;;;;;10.09;90.42;100258.78;5064264;28;19967;-37
2022/04/17 03:36:58;;;;;;;;;;;;;;;10.41;87.67;100254.19;5064324;28;19988;-37
2022/04/17 03:39:23;;;;;;;;;;;;;;;10.32;86.56;100258.59;5062196;28;19923;-37
2022/04/17 03:41:48;;;;;;;;;;;;;;;10.49;86.50;100266.09;5045801;28;19924;-37
2022/04/17 03:44:14;;;;;;;;;;;;;;;10.32;85.83;100256.84;5066108;28;19956;-37
2022/04/17 03:46:39;;;;;;;;;;;;;;;10.33;85.57;100265.44;5066652;28;19983;-37
2022/04/17 03:49:04;;;;;;;;;;;;;;;10.27;85.52;100261.19;5065684;28;19927;-37
2022/04/17 03:51:29;;;;;;;;;;;;;;;10.48;85.25;100248.97;5064442;28;19923;-37
2022/04/17 03:53:55;;;;;;;;;;;;;;;10.38;85.25;100249.06;5068272;28;20717;-37
2022/04/17 03:56:20;;;;;;;;;;;;;;;10.35;85.72;100238.78;5065135;28;20261;-37
2022/04/17 03:58:45;;;;;;;;;;;;;;;10.04;86.76;100249.38;5063690;28;20117;-37
2022/04/17 04:01:10;;;;;;;;;;;;;;;9.99;88.01;100243.44;5067377;28;19962;-37
2022/04/17 04:03:37;;;;;;;;;;;;;;;9.68;89.47;100239.44;5068177;28;19971;-37
2022/04/17 04:06:03;;;;;;;;;;;;;;;9.47;90.99;100225.88;5066387;28;19927;-37
2022/04/17 04:08:28;;;;;;;;;;;;;;;9.35;92.41;100226.84;5067310;28;19924;-37
2022/04/17 04:10:53;;;;;;;;;;;;;;;9.19;94.28;100233.78;5067282;28;19927;-37
2022/04/17 04:13:19;;;;;;;;;;;;;;;9.30;94.66;100226.00;5063804;28;19927;-37
2022/04/17 04:15:44;;;;;;;;;;;;;;;9.58;91.40;100218.94;5066545;28;19927;-37
2022/04/17 04:18:09;;;;;;;;;;;;;;;9.66;91.08;100211.16;5067120;28;19931;-37
2022/04/17 04:20:34;;;;;;;;;;;;;;;9.69;92.03;100217.97;5063815;28;19927;-37
2022/04/17 04:22:59;;;;;;;;;;;;;;;9.44;91.52;100218.16;5062833;28;20007;-37
2022/04/17 04:25:25;;;;;;;;;;;;;;;9.50;92.42;100220.72;5065451;28;20015;-37
2022/04/17 04:30:35;;;;;;;;;;;;;;;9.43;94.52;100219.06;5024235;28;20882;-37
2022/04/17 04:33:01;;;;;;;;;;;;;;;9.13;96.41;100220.97;5062155;28;19973;-37
2022/04/17 04:35:26;;;;;;;;;;;;;;;9.26;95.76;100211.47;5064991;28;19977;-37
2022/04/17 04:37:51;;;;;;;;;;;;;;;8.80;97.48;100219.44;5066030;28;19920;-37
2022/04/17 04:40:18;;;;;;;;;;;;;;;9.10;97.38;100226.16;5062037;28;20573;-37
2022/04/17 04:42:43;;;;;;;;;;;;;;;8.97;97.59;100232.22;5063468;28;19928;-37
2022/04/17 04:47:52;;;;;;;;;;;;;;;8.89;97.75;100236.53;5067562;28;19926;-37
2022/04/17 04:50:17;;;;;;;;;;;;;;;9.03;96.65;100234.72;5065220;28;19924;-37
2022/04/17 04:52:42;;;;;;;;;;;;;;;8.94;95.55;100234.78;5066567;28;19920;-37
2022/04/17 04:55:08;;;;;;;;;;;;;;;9.10;90.20;100236.44;5065301;28;20005;-37
2022/04/17 04:57:36;;;;;;;;;;;;;;;9.72;87.19;100228.25;5066205;28;19967;-37
2022/04/17 05:00:05;;;;;;;;;;;;;;;9.71;87.49;100226.53;5064711;28;20548;-37
2022/04/17 05:02:30;;;;;;;;;;;;;;;9.69;86.19;100231.69;5065660;28;19924;-37
2022/04/17 05:04:56;;;;;;;;;;;;;;;9.58;86.55;100236.09;5067893;28;19979;-37
2022/04/17 05:07:21;;;;;;;;;;;;;;;9.27;91.12;100240.59;5065741;28;19920;-37
2022/04/17 05:09:46;;;;;;;;;;;;;;;9.63;90.32;100242.88;5066382;28;19923;-37
2022/04/17 05:12:11;;;;;;;;;;;;;;;9.56;91.47;100233.53;5064797;28;19956;-37
2022/04/17 05:14:41;;;;;;;;;;;;;;;8.96;94.29;100244.22;5063056;28;20436;-37
2022/04/17 05:17:06;;;;;;;;;;;;;;;8.45;97.00;100240.16;5064697;28;19926;-37
2022/04/17 05:19:31;;;;;;;;;;;;;;;8.50;99.83;100238.41;5065293;28;19920;-37
2022/04/17 05:21:58;;;;;;;;;;;;;;;9.03;98.47;100228.75;5065153;28;19924;-37
2022/04/17 05:24:23;;;;;;;;;;;;;;;8.78;99.43;100227.19;5065781;28;19916;-37
2022/04/17 05:26:49;;;;;;;;;;;;;;;9.00;100.00;100224.47;5065426;28;19916;-37
2022/04/17 05:29:14;;;;;;;;;;;;;;;9.37;98.29;100224.22;5069638;28;19971;-37
2022/04/17 05:31:39;;;;;;;;;;;;;;;9.70;97.43;100217.13;5063355;28;20274;-37
2022/04/17 05:34:04;;;;;;;;;;;;;;;9.48;96.06;100216.44;5065892;28;19921;-37
2022/04/17 05:36:31;;;;;;;;;;;;;;;10.29;94.75;100207.97;5067713;28;19967;-37
2022/04/17 05:38:56;;;;;;;;;;;;;;;10.36;93.54;100213.91;5065783;28;20380;-37
2022/04/17 05:41:22;;;;;;;;;;;;;;;10.72;91.13;100210.03;5066351;28;19926;-37
2022/04/17 05:43:47;;;;;;;;;;;;;;;10.37;92.77;100216.44;5067156;28;19939;-37
2022/04/17 05:46:13;;;;;;;;;;;;;;;10.75;94.90;100217.72;5064500;28;19940;-37
2022/04/17 05:48:38;;;;;;;;;;;;;;;10.83;94.79;100215.91;5063453;28;19972;-37
2022/04/17 05:51:03;;;;;;;;;;;;;;;10.86;94.61;100230.47;5065154;28;20540;-37
2022/04/17 05:53:28;;;;;;;;;;;;;;;11.05;91.89;100218.16;5060936;28;19927;-37
2022/04/17 05:55:53;;;;;;;;;;;;;;;11.32;88.13;100213.47;5060133;28;20291;-37
2022/04/17 05:58:19;;;;;;;;;;;;;;;11.59;85.49;100209.59;5068487;28;19939;-37
2022/04/17 06:00:44;;;;;;;;;;;;;;;11.48;83.20;100204.59;5063363;28;19927;-37
2022/04/17 06:03:10;;;;;;;;;;;;;;;11.85;80.73;100203.97;5062656;28;19928;-37
2022/04/17 06:05:35;;;;;;;;;;;;;;;12.19;81.27;100203.38;5062964;28;19913;-37
2022/04/17 06:08:00;;;;;;;;;;;;;;;12.36;78.36;100209.06;5062562;28;20031;-37
2022/04/17 06:10:26;;;;;;;;;;;;;;;12.59;75.47;100202.56;5061888;28;19959;-37
2022/04/17 06:12:51;;;;;;;;;;;;;;;12.67;76.77;100204.13;5062740;28;19920;-37
2022/04/17 06:15:16;;;;;;;;;;;;;;;12.86;73.56;100196.78;5062777;28;20027;-37
2022/04/17 06:17:42;;;;;;;;;;;;;;;12.72;74.56;100198.84;5061734;28;20019;-37
2022/04/17 06:20:08;;;;;;;;;;;;;;;12.90;74.34;100203.59;5062983;28;19955;-37
2022/04/17 06:22:37;;;;;;;;;;;;;;;12.55;75.93;100202.63;5062188;28;20102;-37
2022/04/17 06:25:03;;;;;;;;;;;;;;;12.33;78.18;100220.31;5059859;28;19924;-37
2022/04/17 06:27:35;;;;;;;;;;;;;;;12.52;77.95;100222.50;5063993;28;19924;-37
2022/04/17 06:30:04;;;;;;;;;;;;;;;11.65;78.08;100228.38;5063285;28;19920;-37
2022/04/17 06:32:29;;;;;;;;;;;;;;;12.74;78.47;100228.09;5063682;28;19961;-37
2022/04/17 06:34:56;;;;;;;;;;;;;;;11.49;80.52;100238.13;5062957;28;19920;-37
2022/04/17 06:37:21;;;;;;;;;;;;;;;11.88;79.80;100227.16;5062134;28;19987;-37
2022/04/17 06:39:46;;;;;;;;;;;;;;;11.87;78.16;100228.03;5065049;28;20588;-37
2022/04/17 06:42:12;;;;;;;;;;;;;;;13.15;74.80;100226.34;5063298;28;19927;-37
2022/04/17 06:44:37;;;;;;;;;;;;;;;12.46;74.83;100228.66;5062224;28;20790;-37
2022/04/17 06:47:02;;;;;;;;;;;;;;;12.41;76.06;100230.50;5061262;28;20439;-37
2022/04/17 06:49:28;;;;;;;;;;;;;;;12.27;78.93;100227.31;5062282;28;20516;-37
2022/04/17 06:51:53;;;;;;;;;;;;;;;12.76;81.49;100228.91;5064238;28;19916;-37
2022/04/17 06:54:18;;;;;;;;;;;;;;;12.76;83.61;100228.91;5061182;28;19947;-37
2022/04/17 06:56:43;;;;;;;;;;;;;;;12.91;81.71;100226.00;5062746;28;19920;-37
2022/04/17 06:59:09;;;;;;;;;;;;;;;13.52;79.93;100218.56;5061810;28;20619;-37
2022/04/17 07:01:35;;;;;;;;;;;;;;;13.34;78.78;100214.72;5062514;28;19917;-37
2022/04/17 07:04:00;;;;;;;;;;;;;;;13.68;82.92;100215.59;5062077;28;21001;-37
2022/04/17 07:06:25;;;;;;;;;;;;;;;13.54;78.08;100218.53;5063572;28;20335;-37
2022/04/17 07:08:50;;;;;;;;;;;;;;;14.13;77.27;100205.78;5060224;28;19920;-37
2022/04/17 07:11:19;;;;;;;;;;;;;;;14.17;73.68;100207.41;5061660;28;19913;-37
2022/04/17 07:13:45;;;;;;;;;;;;;;;14.33;70.56;100204.41;5061286;28;20019;-37
2022/04/17 07:16:10;;;;;;;;;;;;;;;14.57;64.39;100200.25;5059775;28;19926;-37
2022/04/17 07:18:35;;;;;;;;;;;;;;;14.96;64.04;100198.25;5063408;28;19920;-37
2022/04/17 07:21:00;;;;;;;;;;;;;;;13.23;67.74;100211.50;5063666;28;19912;-37
2022/04/17 07:23:26;;;;;;;;;;;;;;;13.47;70.30;100209.22;5060950;28;19971;-37
2022/04/17 07:25:53;;;;;;;;;;;;;;;13.89;75.54;100207.31;5063686;28;20429;-37
2022/04/17 07:28:18;;;;;;;;;;;;;;;14.91;74.27;100209.63;5061469;28;19935;-37
2022/04/17 07:30:43;;;;;;;;;;;;;;;14.74;71.56;100204.97;5061163;28;19920;-37
2022/04/17 07:33:09;;;;;;;;;;;;;;;14.64;75.70;100204.38;5062751;28;19924;-37
2022/04/17 07:35:34;;;;;;;;;;;;;;;15.05;70.36;100197.97;5059608;28;19955;-37
2022/04/17 07:38:00;;;;;;;;;;;;;;;14.46;72.69;100195.38;5062864;28;19927;-37
2022/04/17 07:40:26;;;;;;;;;;;;;;;15.34;73.84;100197.91;5061685;28;20437;-37
2022/04/17 07:42:52;;;;;;;;;;;;;;;14.25;73.42;100209.78;5061557;28;19961;-37
2022/04/17 07:45:18;;;;;;;;;;;;;;;15.05;72.75;100202.28;5062286;28;20301;-37
2022/04/17 07:47:43;;;;;;;;;;;;;;;16.01;67.74;100200.00;5062368;28;19927;-37
2022/04/17 07:50:09;;;;;;;;;;;;;;;14.79;67.18;100203.94;5063460;28;19922;-38
2022/04/17 07:52:34;;;;;;;;;;;;;;;15.67;71.06;100203.75;5061992;28;19970;-37
2022/04/17 07:55:00;;;;;;;;;;;;;;;15.70;64.54;100188.06;5063787;28;19990;-38
2022/04/17 07:57:25;;;;;;;;;;;;;;;16.33;66.86;100185.00;5064438;28;19966;-37
2022/04/17 07:59:55;;;;;;;;;;;;;;;16.87;62.69;100181.25;5069898;28;19916;-37
2022/04/17 08:02:28;;;;;;;;;;;;;;;16.33;60.20;100183.28;5067270;28;19924;-37
2022/04/17 08:04:53;;;;;;;;;;;;;;;15.68;61.30;100184.66;5066594;28;19985;-37
2022/04/17 08:07:19;;;;;;;;;;;;;;;16.29;66.40;100179.94;5067670;28;20019;-37
2022/04/17 08:09:44;;;;;;;;;;;;;;;16.86;66.93;100185.63;5065823;28;19920;-37
2022/04/17 08:12:09;;;;;;;;;;;;;;;17.76;61.09;100177.63;5066518;28;19955;-37
2022/04/17 08:14:34;;;;;;;;;;;;;;;17.43;57.85;100174.69;5068414;28;19930;-37
2022/04/17 08:17:00;;;;;;;;;;;;;;;17.58;60.08;100173.19;5063055;28;19920;-37
2022/04/17 08:19:25;;;;;;;;;;;;;;;17.91;53.37;100161.34;5065995;28;19931;-37
2022/04/17 08:21:51;;;;;;;;;;;;;;;18.24;49.41;100157.31;5063838;28;20386;-37
2022/04/17 08:24:17;;;;;;;;;;;;;;;18.43;50.41;100157.31;5064396;28;20305;-38
2022/04/17 08:26:42;;;;;;;;;;;;;;;18.38;49.03;100154.91;5063368;28;19920;-37
2022/04/17 08:29:09;;;;;;;;;;;;;;;17.90;46.99;100159.69;5066793;28;19962;-37
2022/04/17 08:31:34;;;;;;;;;;;;;;;17.62;47.11;100159.97;5065437;28;19923;-37
2022/04/17 08:34:00;;;;;;;;;;;;;;;17.80;46.59;100153.13;5063372;28;19920;-38
2022/04/17 08:36:25;;;;;;;;;;;;;;;18.14;49.57;100162.09;5065875;28;20832;-37
2022/04/17 08:38:50;;;;;;;;;;;;;;;16.71;48.46;100163.59;5067095;28;19965;-37
2022/04/17 08:41:15;;;;;;;;;;;;;;;16.89;55.89;100156.03;5067438;28;20448;-37
2022/04/17 08:43:41;;;;;;;;;;;;;;;18.18;53.15;100159.28;5064859;28;20697;-37
2022/04/17 08:46:07;;;;;;;;;;;;;;;17.05;58.79;100154.50;5060754;28;19920;-37
2022/04/17 08:48:32;;;;;;;;;;;;;;;18.45;59.01;100153.75;5064281;28;20014;-37
2022/04/17 08:50:58;;;;;;;;;;;;;;;18.18;55.68;100150.63;5062965;28;19920;-37
2022/04/17 08:53:23;;;;;;;;;;;;;;;18.37;55.00;100143.66;5061893;28;20011;-37
2022/04/17 08:55:49;;;;;;;;;;;;;;;17.28;54.68;100144.91;5065087;28;19919;-37
2022/04/17 08:58:14;;;;;;;;;;;;;;;17.73;49.85;100141.28;5067070;28;19930;-37
2022/04/17 09:00:40;;;;;;;;;;;;;;;18.54;51.33;100139.41;5065237;28;20748;-37
2022/04/17 09:03:09;;;;;;;;;;;;;;;19.29;53.76;100132.38;5065102;28;19924;-37
2022/04/17 09:05:34;;;;;;;;;;;;;;;18.79;49.04;100133.91;5061382;28;19920;-37
2022/04/17 09:08:06;;;;;;;;;;;;;;;18.68;49.41;100131.81;5062437;28;19967;-37
2022/04/17 09:10:32;;;;;;;;;;;;;;;19.76;49.85;100132.59;5063902;28;20369;-37
2022/04/17 09:12:59;;;;;;;;;;;;;;;19.17;51.92;100142.50;5064837;28;19916;-37
2022/04/17 09:15:34;;;;;;;;;;;;;;;19.14;51.82;100136.59;5065603;28;19991;-37
2022/04/17 09:17:59;;;;;;;;;;;;;;;18.19;50.46;100134.06;5064800;28;19956;-37
2022/04/17 09:20:25;;;;;;;;;;;;;;;18.14;50.91;100123.84;5062305;28;20019;-38
2022/04/17 09:22:54;;;;;;;;;;;;;;;19.67;51.88;100119.13;5046647;28;20338;-37
2022/04/17 09:25:22;;;;;;;;;;;;;;;20.37;49.92;100110.16;5063629;28;19920;-37
2022/04/17 09:27:54;;;;;;;;;;;;;;;18.08;47.22;100113.69;5067390;28;19998;-38
2022/04/17 09:30:33;;;;;;;;;;;;;;;20.36;48.21;100105.00;5068317;28;19920;-37
2022/04/17 09:32:58;;;;;;;;;;;;;;;19.01;48.99;100107.63;5065044;28;19923;-37
2022/04/17 09:35:24;;;;;;;;;;;;;;;18.55;47.90;100109.81;5063961;28;19916;-37
2022/04/17 09:37:53;;;;;;;;;;;;;;;19.45;49.24;100094.09;5065171;28;19987;-37
2022/04/17 09:40:19;;;;;;;;;;;;;;;19.21;47.73;100085.75;5064910;28;20453;-37
2022/04/17 09:42:44;;;;;;;;;;;;;;;19.69;44.80;100085.97;5063077;28;19924;-37
2022/04/17 09:45:09;;;;;;;;;;;;;;;20.22;44.57;100077.00;5062943;28;19972;-37
2022/04/17 09:47:34;;;;;;;;;;;;;;;18.64;44.43;100079.84;5062684;28;19956;-37
2022/04/17 09:50:00;;;;;;;;;;;;;;;19.31;47.71;100080.91;5064248;28;19989;-37
2022/04/17 09:52:32;;;;;;;;;;;;;;;18.43;47.01;100074.72;5063574;28;19916;-37
2022/04/17 09:54:58;;;;;;;;;;;;;;;19.36;50.49;100073.66;5057207;28;19920;-37
2022/04/17 09:57:29;;;;;;;;;;;;;;;19.51;44.76;100065.03;5065211;28;20830;-37
2022/04/17 09:59:56;;;;;;;;;;;;;;;20.32;46.48;100059.88;5062242;28;19921;-37
2022/04/17 10:02:21;;;;;;;;;;;;;;;18.88;44.10;100055.16;5062686;28;20365;-37
2022/04/17 10:04:47;;;;;;;;;;;;;;;19.97;44.60;100051.34;5062308;28;19946;-37
2022/04/17 10:07:14;;;;;;;;;;;;;;;19.78;41.91;100030.56;5062765;28;20698;-37
2022/04/17 10:09:40;;;;;;;;;;;;;;;20.63;41.40;100026.78;5060902;28;20024;-37
2022/04/17 10:12:05;;;;;;;;;;;;;;;19.90;42.71;100029.91;5059634;28;20684;-37
2022/04/17 10:14:31;;;;;;;;;;;;;;;20.34;38.54;100013.53;5059079;28;20020;-37
2022/04/17 10:16:56;;;;;;;;;;;;;;;21.13;41.87;100020.34;5062020;28;21158;-37
2022/04/17 10:19:24;;;;;;;;;;;;;;;20.34;37.27;100005.66;5060768;28;19993;-37
2022/04/17 10:21:49;;;;;;;;;;;;;;;20.30;38.82;100003.31;5061088;28;19924;-37
2022/04/17 10:24:15;;;;;;;;;;;;;;;19.42;37.57;99987.16;5058249;28;19923;-38
2022/04/17 10:26:44;;;;;;;;;;;;;;;20.15;37.68;99989.34;5060967;28;19939;-37
2022/04/17 10:29:12;;;;;;;;;;;;;;;20.59;39.19;99992.06;5063541;28;19921;-37
2022/04/17 10:31:49;;;;;;;;;;;;;;;21.27;35.64;99977.59;5059486;28;19959;-37
2022/04/17 10:34:26;;;;;;;;;;;;;;;22.35;36.59;99971.72;5057640;28;19917;-37
2022/04/17 10:36:54;;;;;;;;;;;;;;;21.17;34.92;99960.78;5061890;28;19924;-37
2022/04/17 10:39:24;;;;;;;;;;;;;;;19.96;35.77;99963.38;5060971;28;19920;-37
2022/04/17 10:41:49;;;;;;;;;;;;;;;20.85;34.96;99964.38;5058605;28;19925;-37
2022/04/17 10:44:15;;;;;;;;;;;;;;;21.72;34.54;99960.00;5062026;28;19989;-37
2022/04/17 10:46:47;;;;;;;;;;;;;;;19.92;33.69;99965.31;5061850;28;20450;-37
2022/04/17 10:49:13;;;;;;;;;;;;;;;21.23;33.84;99961.25;5059049;28;19978;-37
2022/04/17 10:51:38;;;;;;;;;;;;;;;19.80;32.16;99960.78;5059319;28;19924;-37
2022/04/17 10:54:09;;;;;;;;;;;;;;;21.88;32.86;99946.78;5060609;28;19915;-37
2022/04/17 10:56:35;;;;;;;;;;;;;;;22.47;35.81;99949.94;5059302;28;20626;-37
2022/04/17 10:59:03;;;;;;;;;;;;;;;22.05;32.30;99930.78;5063862;28;19962;-37
2022/04/17 11:01:44;;;;;;;;;;;;;;;20.96;36.19;99944.56;5060906;28;19921;-37
2022/04/17 11:04:16;;;;;;;;;;;;;;;21.64;31.21;99933.44;5062528;28;19924;-37
2022/04/17 11:06:42;;;;;;;;;;;;;;;21.53;31.23;99926.25;5060763;28;19977;-37
2022/04/17 11:09:12;;;;;;;;;;;;;;;20.61;32.17;99929.19;5062762;28;19917;-38
2022/04/17 11:11:43;;;;;;;;;;;;;;;21.85;32.02;99921.59;5063533;28;19920;-37
2022/04/17 11:14:12;;;;;;;;;;;;;;;23.09;32.40;99907.25;5061796;28;19917;-37
2022/04/17 11:16:53;;;;;;;;;;;;;;;20.14;31.06;99917.03;5062907;28;19978;-37
2022/04/17 11:19:20;;;;;;;;;;;;;;;22.35;35.16;99911.38;5061236;28;20797;-37
2022/04/17 11:21:46;;;;;;;;;;;;;;;21.71;30.67;99905.88;5059125;28;20282;-37
2022/04/17 11:24:11;;;;;;;;;;;;;;;21.25;31.25;99908.75;5061670;28;19917;-37
2022/04/17 11:26:58;;;;;;;;;;;;;;;21.14;32.08;99919.03;5060439;28;19925;-37
2022/04/17 11:29:39;;;;;;;;;;;;;;;19.70;31.13;99912.53;5061179;28;19977;-37
2022/04/17 11:32:28;;;;;;;;;;;;;;;19.89;29.70;99892.28;5062581;28;20602;-37
2022/04/17 11:34:53;;;;;;;;;;;;;;;19.74;29.79;99898.38;5062439;28;20553;-37
2022/04/17 11:37:19;;;;;;;;;;;;;;;21.83;31.64;99901.66;5063458;28;19924;-37
2022/04/17 11:39:44;;;;;;;;;;;;;;;22.76;30.28;99890.22;5065280;28;19923;-37
2022/04/17 11:42:10;;;;;;;;;;;;;;;20.95;30.06;99893.13;5064107;28;19928;-37
2022/04/17 11:44:35;;;;;;;;;;;;;;;21.62;30.55;99893.34;5061487;28;19981;-37
2022/04/17 11:47:01;;;;;;;;;;;;;;;21.83;32.17;99885.91;5062758;28;20640;-37
2022/04/17 11:49:26;;;;;;;;;;;;;;;21.92;30.92;99886.16;5066059;28;19916;-37
2022/04/17 11:51:51;;;;;;;;;;;;;;;21.95;29.86;99864.13;5063362;28;19920;-37
2022/04/17 11:54:29;;;;;;;;;;;;;;;20.43;29.95;99882.19;5057909;28;19978;-37
2022/04/17 11:56:54;;;;;;;;;;;;;;;21.05;29.27;99865.44;5063194;28;19920;-37
2022/04/17 11:59:20;;;;;;;;;;;;;;;21.19;30.92;99870.69;5064591;28;20316;-45
2022/04/17 12:01:45;;;;;;;;;;;;;;;21.58;31.83;99870.94;5063928;28;19927;-46
2022/04/17 12:04:20;;;;;;;;;;;;;;;21.61;28.17;99845.34;5061227;28;19921;-45
2022/04/17 12:06:45;;;;;;;;;;;;;;;20.79;28.53;99861.81;5062449;28;19923;-45
2022/04/17 12:09:13;;;;;;;;;;;;;;;22.12;29.15;99856.00;5062392;28;20635;-46
2022/04/17 12:11:42;;;;;;;;;;;;;;;22.80;30.87;99861.94;5065646;28;19927;-48
2022/04/17 12:14:09;;;;;;;;;;;;;;;20.89;29.58;99853.31;5061650;28;19974;-46
2022/04/17 12:16:49;;;;;;;;;;;;;;;22.87;31.77;99855.31;5063337;28;19919;-45
2022/04/17 12:19:14;;;;;;;;;;;;;;;22.87;28.87;99846.59;5063021;28;20455;-45
2022/04/17 12:21:39;;;;;;;;;;;;;;;23.18;29.93;99845.34;5065979;28;19916;-46
2022/04/17 12:24:05;;;;;;;;;;;;;;;22.90;28.92;99833.28;5063844;28;19924;-47
2022/04/17 12:26:30;;;;;;;;;;;;;;;23.00;28.58;99831.72;5067678;28;19916;-46
2022/04/17 12:28:55;;;;;;;;;;;;;;;23.14;30.09;99831.56;5066633;28;20496;-45
2022/04/17 12:31:20;;;;;;;;;;;;;;;22.12;29.11;99831.53;5065825;28;20579;-45
2022/04/17 12:33:46;;;;;;;;;;;;;;;21.87;28.38;99813.97;5059386;28;20003;-46
2022/04/17 12:36:15;;;;;;;;;;;;;;;21.82;27.85;99811.63;5064499;28;20061;-45
2022/04/17 12:38:43;;;;;;;;;;;;;;;22.31;28.43;99812.81;5063349;28;19949;-49
2022/04/17 12:41:18;;;;;;;;;;;;;;;22.43;28.15;99798.84;5063215;28;19916;-46
2022/04/17 12:43:43;;;;;;;;;;;;;;;21.62;28.66;99815.59;5064028;28;19959;-46
2022/04/17 12:46:09;;;;;;;;;;;;;;;21.80;27.45;99803.03;5063440;28;20019;-46
2022/04/17 12:48:35;;;;;;;;;;;;;;;22.38;28.90;99797.50;5064600;28;19923;-45
2022/04/17 12:51:00;;;;;;;;;;;;;;;23.61;28.33;99802.81;5062377;28;19958;-45